sensor_id;sensor_type;location;lat;lon;timestamp;P1;durP1;ratioP1;P2;durP2;ratioP2
10651;SDS011;5374;42.742;23.266;2023-01-19T00:02:05;27.80;;;5.43;;
10651;SDS011;5374;42.742;23.266;2023-01-19T00:04:52;28.00;;;5.43;;
10651;SDS011;5374;42.742;23.266;2023-01-19T00:07:40;30.20;;;5.40;;
10651;SDS011;5374;42.742;23.266;2023-01-19T00:10:28;25.77;;;5.10;;
10651;SDS011;5374;42.742;23.266;2023-01-19T00:13:15;33.30;;;5.70;;
10651;SDS011;5374;42.742;23.266;2023-01-19T00:16:03;31.73;;;5.00;;
10651;SDS011;5374;42.742;23.266;2023-01-19T00:18:50;34.83;;;5.17;;
10651;SDS011;5374;42.742;23.266;2023-01-19T00:21:40;27.33;;;5.13;;
10651;SDS011;5374;42.742;23.266;2023-01-19T00:24:27;35.70;;;5.30;;
10651;SDS011;5374;42.742;23.266;2023-01-19T00:27:26;25.47;;;4.67;;
10651;SDS011;5374;42.742;23.266;2023-01-19T00:30:15;30.03;;;5.70;;
10651;SDS011;5374;42.742;23.266;2023-01-19T00:33:02;30.00;;;5.90;;
10651;SDS011;5374;42.742;23.266;2023-01-19T00:35:50;28.03;;;4.87;;
10651;SDS011;5374;42.742;23.266;2023-01-19T00:38:39;24.23;;;4.90;;
10651;SDS011;5374;42.742;23.266;2023-01-19T00:41:26;25.40;;;4.83;;
10651;SDS011;5374;42.742;23.266;2023-01-19T00:44:28;26.13;;;4.87;;
10651;SDS011;5374;42.742;23.266;2023-01-19T00:47:15;31.83;;;5.13;;
10651;SDS011;5374;42.742;23.266;2023-01-19T00:50:03;24.67;;;4.77;;
10651;SDS011;5374;42.742;23.266;2023-01-19T00:52:51;29.67;;;5.67;;
10651;SDS011;5374;42.742;23.266;2023-01-19T00:55:38;30.70;;;4.67;;
10651;SDS011;5374;42.742;23.266;2023-01-19T00:58:25;31.10;;;5.73;;
10651;SDS011;5374;42.742;23.266;2023-01-19T01:01:14;31.17;;;5.07;;
10651;SDS011;5374;42.742;23.266;2023-01-19T01:04:01;28.63;;;5.77;;
10651;SDS011;5374;42.742;23.266;2023-01-19T01:06:48;31.97;;;6.00;;
10651;SDS011;5374;42.742;23.266;2023-01-19T01:09:35;30.20;;;5.43;;
10651;SDS011;5374;42.742;23.266;2023-01-19T01:12:23;28.93;;;5.23;;
10651;SDS011;5374;42.742;23.266;2023-01-19T01:15:11;31.67;;;5.03;;
10651;SDS011;5374;42.742;23.266;2023-01-19T01:18:00;29.97;;;6.87;;
10651;SDS011;5374;42.742;23.266;2023-01-19T01:20:48;31.57;;;5.43;;
10651;SDS011;5374;42.742;23.266;2023-01-19T01:23:35;28.57;;;5.53;;
10651;SDS011;5374;42.742;23.266;2023-01-19T01:26:22;27.00;;;5.47;;
10651;SDS011;5374;42.742;23.266;2023-01-19T01:29:09;32.13;;;4.97;;
10651;SDS011;5374;42.742;23.266;2023-01-19T01:31:56;29.87;;;5.33;;
10651;SDS011;5374;42.742;23.266;2023-01-19T01:34:45;38.03;;;5.63;;
10651;SDS011;5374;42.742;23.266;2023-01-19T01:37:32;29.13;;;5.47;;
10651;SDS011;5374;42.742;23.266;2023-01-19T01:40:19;29.37;;;5.57;;
10651;SDS011;5374;42.742;23.266;2023-01-19T01:43:08;22.30;;;4.70;;
10651;SDS011;5374;42.742;23.266;2023-01-19T01:45:57;27.27;;;6.03;;
10651;SDS011;5374;42.742;23.266;2023-01-19T01:48:45;26.13;;;4.90;;
10651;SDS011;5374;42.742;23.266;2023-01-19T01:51:41;25.23;;;4.90;;
10651;SDS011;5374;42.742;23.266;2023-01-19T01:54:32;27.43;;;4.37;;
10651;SDS011;5374;42.742;23.266;2023-01-19T01:57:19;29.73;;;4.47;;
10651;SDS011;5374;42.742;23.266;2023-01-19T02:00:08;27.60;;;5.13;;
10651;SDS011;5374;42.742;23.266;2023-01-19T02:02:56;27.07;;;4.70;;
10651;SDS011;5374;42.742;23.266;2023-01-19T02:05:44;25.30;;;5.00;;
10651;SDS011;5374;42.742;23.266;2023-01-19T02:08:34;23.10;;;4.30;;
10651;SDS011;5374;42.742;23.266;2023-01-19T02:11:44;30.67;;;4.37;;
10651;SDS011;5374;42.742;23.266;2023-01-19T02:14:49;27.83;;;5.10;;
10651;SDS011;5374;42.742;23.266;2023-01-19T02:17:36;22.03;;;4.33;;
10651;SDS011;5374;42.742;23.266;2023-01-19T02:20:23;27.73;;;4.10;;
10651;SDS011;5374;42.742;23.266;2023-01-19T02:23:14;25.13;;;4.17;;
10651;SDS011;5374;42.742;23.266;2023-01-19T02:26:07;33.20;;;4.90;;
10651;SDS011;5374;42.742;23.266;2023-01-19T02:28:57;24.77;;;4.20;;
10651;SDS011;5374;42.742;23.266;2023-01-19T02:31:46;28.63;;;4.13;;
10651;SDS011;5374;42.742;23.266;2023-01-19T02:34:33;24.23;;;4.47;;
10651;SDS011;5374;42.742;23.266;2023-01-19T02:37:20;18.47;;;3.70;;
10651;SDS011;5374;42.742;23.266;2023-01-19T02:40:09;21.10;;;4.17;;
10651;SDS011;5374;42.742;23.266;2023-01-19T02:43:01;20.37;;;4.50;;
10651;SDS011;5374;42.742;23.266;2023-01-19T02:45:49;27.40;;;4.70;;
10651;SDS011;5374;42.742;23.266;2023-01-19T02:48:37;25.20;;;4.03;;
10651;SDS011;5374;42.742;23.266;2023-01-19T02:51:24;20.90;;;4.03;;
10651;SDS011;5374;42.742;23.266;2023-01-19T02:54:25;22.47;;;3.57;;
10651;SDS011;5374;42.742;23.266;2023-01-19T02:57:23;23.13;;;4.03;;
10651;SDS011;5374;42.742;23.266;2023-01-19T03:00:23;23.50;;;3.73;;
10651;SDS011;5374;42.742;23.266;2023-01-19T03:03:22;20.70;;;4.17;;
10651;SDS011;5374;42.742;23.266;2023-01-19T03:06:18;26.73;;;4.30;;
10651;SDS011;5374;42.742;23.266;2023-01-19T03:09:14;27.70;;;4.40;;
10651;SDS011;5374;42.742;23.266;2023-01-19T03:12:08;22.13;;;4.20;;
10651;SDS011;5374;42.742;23.266;2023-01-19T03:15:00;27.30;;;4.73;;
10651;SDS011;5374;42.742;23.266;2023-01-19T03:18:00;20.17;;;3.77;;
10651;SDS011;5374;42.742;23.266;2023-01-19T03:20:49;25.27;;;4.53;;
10651;SDS011;5374;42.742;23.266;2023-01-19T03:23:40;20.40;;;3.33;;
10651;SDS011;5374;42.742;23.266;2023-01-19T03:26:32;24.80;;;4.40;;
10651;SDS011;5374;42.742;23.266;2023-01-19T03:29:23;21.97;;;3.87;;
10651;SDS011;5374;42.742;23.266;2023-01-19T03:32:14;27.03;;;3.93;;
10651;SDS011;5374;42.742;23.266;2023-01-19T03:35:06;19.60;;;3.67;;
10651;SDS011;5374;42.742;23.266;2023-01-19T03:37:57;26.60;;;4.00;;
10651;SDS011;5374;42.742;23.266;2023-01-19T03:40:49;26.63;;;4.70;;
10651;SDS011;5374;42.742;23.266;2023-01-19T03:43:41;24.33;;;3.77;;
10651;SDS011;5374;42.742;23.266;2023-01-19T03:46:29;23.20;;;3.80;;
10651;SDS011;5374;42.742;23.266;2023-01-19T03:49:18;19.00;;;3.90;;
10651;SDS011;5374;42.742;23.266;2023-01-19T03:52:07;29.97;;;4.37;;
10651;SDS011;5374;42.742;23.266;2023-01-19T03:54:54;17.17;;;3.67;;
10651;SDS011;5374;42.742;23.266;2023-01-19T03:57:41;22.40;;;4.20;;
10651;SDS011;5374;42.742;23.266;2023-01-19T04:00:29;17.60;;;3.93;;
10651;SDS011;5374;42.742;23.266;2023-01-19T04:03:17;18.23;;;3.73;;
10651;SDS011;5374;42.742;23.266;2023-01-19T04:06:04;22.40;;;3.87;;
10651;SDS011;5374;42.742;23.266;2023-01-19T04:08:53;30.00;;;5.57;;
10651;SDS011;5374;42.742;23.266;2023-01-19T04:11:40;31.20;;;5.00;;
10651;SDS011;5374;42.742;23.266;2023-01-19T04:14:27;33.63;;;5.07;;
10651;SDS011;5374;42.742;23.266;2023-01-19T04:17:14;30.43;;;5.00;;
10651;SDS011;5374;42.742;23.266;2023-01-19T04:20:01;27.90;;;4.63;;
10651;SDS011;5374;42.742;23.266;2023-01-19T04:22:49;33.83;;;5.17;;
10651;SDS011;5374;42.742;23.266;2023-01-19T04:25:37;38.00;;;5.37;;
10651;SDS011;5374;42.742;23.266;2023-01-19T04:28:24;34.83;;;5.33;;
10651;SDS011;5374;42.742;23.266;2023-01-19T04:31:12;27.07;;;4.90;;
10651;SDS011;5374;42.742;23.266;2023-01-19T04:33:59;35.10;;;4.90;;
10651;SDS011;5374;42.742;23.266;2023-01-19T04:36:46;31.43;;;5.37;;
10651;SDS011;5374;42.742;23.266;2023-01-19T04:39:35;32.20;;;4.87;;
10651;SDS011;5374;42.742;23.266;2023-01-19T04:42:24;26.87;;;5.50;;
10651;SDS011;5374;42.742;23.266;2023-01-19T04:45:12;33.13;;;5.87;;
10651;SDS011;5374;42.742;23.266;2023-01-19T04:48:00;34.53;;;5.43;;
10651;SDS011;5374;42.742;23.266;2023-01-19T04:50:49;30.90;;;5.60;;
10651;SDS011;5374;42.742;23.266;2023-01-19T04:53:36;35.50;;;6.67;;
10651;SDS011;5374;42.742;23.266;2023-01-19T04:56:23;32.60;;;5.77;;
10651;SDS011;5374;42.742;23.266;2023-01-19T04:59:13;34.77;;;6.20;;
10651;SDS011;5374;42.742;23.266;2023-01-19T05:02:01;32.53;;;5.47;;
10651;SDS011;5374;42.742;23.266;2023-01-19T05:04:48;39.13;;;5.77;;
10651;SDS011;5374;42.742;23.266;2023-01-19T05:07:35;34.47;;;5.03;;
10651;SDS011;5374;42.742;23.266;2023-01-19T05:10:22;31.87;;;6.33;;
10651;SDS011;5374;42.742;23.266;2023-01-19T05:13:09;35.80;;;6.10;;
10651;SDS011;5374;42.742;23.266;2023-01-19T05:15:58;29.70;;;6.00;;
10651;SDS011;5374;42.742;23.266;2023-01-19T05:18:46;40.17;;;5.70;;
10651;SDS011;5374;42.742;23.266;2023-01-19T05:21:35;39.77;;;8.20;;
10651;SDS011;5374;42.742;23.266;2023-01-19T05:24:22;38.67;;;5.90;;
10651;SDS011;5374;42.742;23.266;2023-01-19T05:27:09;27.63;;;5.40;;
10651;SDS011;5374;42.742;23.266;2023-01-19T05:30:01;29.60;;;6.07;;
10651;SDS011;5374;42.742;23.266;2023-01-19T05:32:50;30.80;;;5.07;;
10651;SDS011;5374;42.742;23.266;2023-01-19T05:35:38;32.33;;;5.93;;
10651;SDS011;5374;42.742;23.266;2023-01-19T05:38:25;37.87;;;7.80;;
10651;SDS011;5374;42.742;23.266;2023-01-19T05:41:12;33.50;;;7.37;;
10651;SDS011;5374;42.742;23.266;2023-01-19T05:43:59;34.77;;;9.77;;
10651;SDS011;5374;42.742;23.266;2023-01-19T05:46:47;32.60;;;6.77;;
10651;SDS011;5374;42.742;23.266;2023-01-19T05:49:35;37.90;;;6.23;;
10651;SDS011;5374;42.742;23.266;2023-01-19T05:52:27;33.33;;;5.43;;
10651;SDS011;5374;42.742;23.266;2023-01-19T05:55:16;32.73;;;5.50;;
10651;SDS011;5374;42.742;23.266;2023-01-19T05:58:03;31.80;;;6.00;;
10651;SDS011;5374;42.742;23.266;2023-01-19T06:00:50;33.27;;;5.90;;
10651;SDS011;5374;42.742;23.266;2023-01-19T06:03:37;29.83;;;5.77;;
10651;SDS011;5374;42.742;23.266;2023-01-19T06:06:26;44.93;;;7.57;;
10651;SDS011;5374;42.742;23.266;2023-01-19T06:09:13;34.73;;;7.57;;
10651;SDS011;5374;42.742;23.266;2023-01-19T06:12:01;35.03;;;6.73;;
10651;SDS011;5374;42.742;23.266;2023-01-19T06:14:49;37.30;;;6.60;;
10651;SDS011;5374;42.742;23.266;2023-01-19T06:17:36;46.43;;;11.00;;
10651;SDS011;5374;42.742;23.266;2023-01-19T06:20:23;32.40;;;5.07;;
10651;SDS011;5374;42.742;23.266;2023-01-19T06:23:12;35.33;;;5.97;;
10651;SDS011;5374;42.742;23.266;2023-01-19T06:25:59;36.57;;;8.77;;
10651;SDS011;5374;42.742;23.266;2023-01-19T06:28:46;35.03;;;6.23;;
10651;SDS011;5374;42.742;23.266;2023-01-19T06:31:33;43.67;;;8.27;;
10651;SDS011;5374;42.742;23.266;2023-01-19T06:34:21;37.90;;;7.13;;
10651;SDS011;5374;42.742;23.266;2023-01-19T06:37:13;31.27;;;6.37;;
10651;SDS011;5374;42.742;23.266;2023-01-19T06:40:02;30.37;;;6.60;;
10651;SDS011;5374;42.742;23.266;2023-01-19T06:42:50;34.73;;;6.93;;
10651;SDS011;5374;42.742;23.266;2023-01-19T06:45:37;34.50;;;6.80;;
10651;SDS011;5374;42.742;23.266;2023-01-19T06:48:24;31.13;;;6.23;;
10651;SDS011;5374;42.742;23.266;2023-01-19T06:51:12;35.27;;;5.70;;
10651;SDS011;5374;42.742;23.266;2023-01-19T06:53:59;36.77;;;6.27;;
10651;SDS011;5374;42.742;23.266;2023-01-19T06:56:48;39.03;;;6.33;;
10651;SDS011;5374;42.742;23.266;2023-01-19T06:59:36;32.60;;;7.53;;
10651;SDS011;5374;42.742;23.266;2023-01-19T07:02:23;43.93;;;7.97;;
10651;SDS011;5374;42.742;23.266;2023-01-19T07:05:10;39.03;;;6.47;;
10651;SDS011;5374;42.742;23.266;2023-01-19T07:07:58;30.30;;;6.03;;
10651;SDS011;5374;42.742;23.266;2023-01-19T07:10:46;34.50;;;6.87;;
10651;SDS011;5374;42.742;23.266;2023-01-19T07:13:35;44.33;;;7.07;;
10651;SDS011;5374;42.742;23.266;2023-01-19T07:16:23;40.37;;;7.37;;
10651;SDS011;5374;42.742;23.266;2023-01-19T07:19:11;33.80;;;6.70;;
10651;SDS011;5374;42.742;23.266;2023-01-19T07:21:58;38.93;;;6.80;;
10651;SDS011;5374;42.742;23.266;2023-01-19T07:24:45;54.47;;;14.57;;
10651;SDS011;5374;42.742;23.266;2023-01-19T07:27:32;38.67;;;8.77;;
10651;SDS011;5374;42.742;23.266;2023-01-19T07:30:21;36.07;;;6.90;;
10651;SDS011;5374;42.742;23.266;2023-01-19T07:33:08;33.40;;;7.40;;
10651;SDS011;5374;42.742;23.266;2023-01-19T07:35:55;41.27;;;7.13;;
10651;SDS011;5374;42.742;23.266;2023-01-19T07:38:43;32.23;;;6.40;;
10651;SDS011;5374;42.742;23.266;2023-01-19T07:41:32;30.23;;;7.20;;
10651;SDS011;5374;42.742;23.266;2023-01-19T07:44:19;37.47;;;6.30;;
10651;SDS011;5374;42.742;23.266;2023-01-19T07:47:08;36.80;;;7.00;;
10651;SDS011;5374;42.742;23.266;2023-01-19T07:49:57;39.40;;;6.47;;
10651;SDS011;5374;42.742;23.266;2023-01-19T07:52:44;51.13;;;7.20;;
10651;SDS011;5374;42.742;23.266;2023-01-19T07:55:31;33.63;;;6.43;;
10651;SDS011;5374;42.742;23.266;2023-01-19T07:58:18;37.40;;;6.40;;
10651;SDS011;5374;42.742;23.266;2023-01-19T08:01:06;42.03;;;8.17;;
10651;SDS011;5374;42.742;23.266;2023-01-19T08:03:55;48.27;;;7.30;;
10651;SDS011;5374;42.742;23.266;2023-01-19T08:06:42;42.13;;;6.67;;
10651;SDS011;5374;42.742;23.266;2023-01-19T08:09:31;36.73;;;6.70;;
10651;SDS011;5374;42.742;23.266;2023-01-19T08:12:19;40.53;;;7.13;;
10651;SDS011;5374;42.742;23.266;2023-01-19T08:15:06;41.37;;;7.70;;
10651;SDS011;5374;42.742;23.266;2023-01-19T08:17:55;37.23;;;7.10;;
10651;SDS011;5374;42.742;23.266;2023-01-19T08:20:44;48.60;;;7.60;;
10651;SDS011;5374;42.742;23.266;2023-01-19T08:23:32;34.43;;;7.60;;
10651;SDS011;5374;42.742;23.266;2023-01-19T08:26:20;45.23;;;7.60;;
10651;SDS011;5374;42.742;23.266;2023-01-19T08:29:11;37.50;;;6.70;;
10651;SDS011;5374;42.742;23.266;2023-01-19T08:31:58;34.47;;;7.23;;
10651;SDS011;5374;42.742;23.266;2023-01-19T08:34:47;42.67;;;7.47;;
10651;SDS011;5374;42.742;23.266;2023-01-19T08:37:35;38.70;;;7.00;;
10651;SDS011;5374;42.742;23.266;2023-01-19T08:40:22;39.30;;;7.80;;
10651;SDS011;5374;42.742;23.266;2023-01-19T08:43:10;33.23;;;6.70;;
10651;SDS011;5374;42.742;23.266;2023-01-19T08:45:59;46.53;;;7.17;;
10651;SDS011;5374;42.742;23.266;2023-01-19T08:48:46;40.63;;;7.63;;
10651;SDS011;5374;42.742;23.266;2023-01-19T08:51:33;37.30;;;7.27;;
10651;SDS011;5374;42.742;23.266;2023-01-19T08:54:22;31.20;;;7.63;;
10651;SDS011;5374;42.742;23.266;2023-01-19T08:57:09;35.80;;;7.00;;
10651;SDS011;5374;42.742;23.266;2023-01-19T08:59:57;31.10;;;6.33;;
10651;SDS011;5374;42.742;23.266;2023-01-19T09:02:44;40.23;;;6.83;;
10651;SDS011;5374;42.742;23.266;2023-01-19T09:05:32;34.10;;;6.63;;
10651;SDS011;5374;42.742;23.266;2023-01-19T09:08:21;35.53;;;6.90;;
10651;SDS011;5374;42.742;23.266;2023-01-19T09:11:10;28.40;;;5.93;;
10651;SDS011;5374;42.742;23.266;2023-01-19T09:13:58;31.97;;;6.30;;
10651;SDS011;5374;42.742;23.266;2023-01-19T09:16:45;36.87;;;5.97;;
10651;SDS011;5374;42.742;23.266;2023-01-19T09:19:32;28.47;;;5.83;;
10651;SDS011;5374;42.742;23.266;2023-01-19T09:22:20;31.63;;;6.10;;
10651;SDS011;5374;42.742;23.266;2023-01-19T09:25:07;32.00;;;5.50;;
10651;SDS011;5374;42.742;23.266;2023-01-19T09:27:56;27.17;;;5.60;;
10651;SDS011;5374;42.742;23.266;2023-01-19T09:30:44;40.90;;;6.17;;
10651;SDS011;5374;42.742;23.266;2023-01-19T09:33:32;31.07;;;5.43;;
10651;SDS011;5374;42.742;23.266;2023-01-19T09:36:20;22.50;;;5.03;;
10651;SDS011;5374;42.742;23.266;2023-01-19T09:39:07;30.27;;;6.00;;
10651;SDS011;5374;42.742;23.266;2023-01-19T09:41:56;24.53;;;4.70;;
10651;SDS011;5374;42.742;23.266;2023-01-19T09:44:51;32.33;;;5.60;;
10651;SDS011;5374;42.742;23.266;2023-01-19T09:47:39;29.50;;;5.13;;
10651;SDS011;5374;42.742;23.266;2023-01-19T09:50:28;24.80;;;5.07;;
10651;SDS011;5374;42.742;23.266;2023-01-19T09:53:23;24.67;;;5.50;;
10651;SDS011;5374;42.742;23.266;2023-01-19T09:56:21;21.63;;;4.80;;
10651;SDS011;5374;42.742;23.266;2023-01-19T09:59:13;24.67;;;5.13;;
10651;SDS011;5374;42.742;23.266;2023-01-19T10:02:17;23.63;;;5.53;;
10651;SDS011;5374;42.742;23.266;2023-01-19T10:05:18;27.60;;;5.30;;
10651;SDS011;5374;42.742;23.266;2023-01-19T10:08:14;20.10;;;4.67;;
10651;SDS011;5374;42.742;23.266;2023-01-19T10:11:14;26.03;;;4.87;;
10651;SDS011;5374;42.742;23.266;2023-01-19T10:14:12;26.50;;;4.50;;
10651;SDS011;5374;42.742;23.266;2023-01-19T10:17:09;22.37;;;4.80;;
10651;SDS011;5374;42.742;23.266;2023-01-19T10:20:09;24.57;;;4.20;;
10651;SDS011;5374;42.742;23.266;2023-01-19T10:23:03;22.47;;;4.77;;
10651;SDS011;5374;42.742;23.266;2023-01-19T10:26:04;28.80;;;4.80;;
10651;SDS011;5374;42.742;23.266;2023-01-19T10:28:54;23.67;;;4.43;;
10651;SDS011;5374;42.742;23.266;2023-01-19T10:31:44;26.40;;;4.90;;
10651;SDS011;5374;42.742;23.266;2023-01-19T10:34:32;21.60;;;4.10;;
10651;SDS011;5374;42.742;23.266;2023-01-19T10:37:24;18.90;;;4.50;;
10651;SDS011;5374;42.742;23.266;2023-01-19T10:40:17;21.97;;;4.37;;
10651;SDS011;5374;42.742;23.266;2023-01-19T10:46:26;18.87;;;4.87;;
10651;SDS011;5374;42.742;23.266;2023-01-19T10:49:20;20.83;;;4.10;;
10651;SDS011;5374;42.742;23.266;2023-01-19T10:52:18;24.23;;;3.57;;
10651;SDS011;5374;42.742;23.266;2023-01-19T10:55:18;24.13;;;4.00;;
10651;SDS011;5374;42.742;23.266;2023-01-19T10:58:25;21.07;;;4.10;;
10651;SDS011;5374;42.742;23.266;2023-01-19T11:01:15;16.63;;;4.03;;
10651;SDS011;5374;42.742;23.266;2023-01-19T11:04:21;25.50;;;4.67;;
10651;SDS011;5374;42.742;23.266;2023-01-19T11:07:14;19.60;;;4.27;;
10651;SDS011;5374;42.742;23.266;2023-01-19T11:10:18;26.93;;;6.50;;
10651;SDS011;5374;42.742;23.266;2023-01-19T11:13:09;20.57;;;4.47;;
10651;SDS011;5374;42.742;23.266;2023-01-19T11:16:03;17.77;;;4.03;;
10651;SDS011;5374;42.742;23.266;2023-01-19T11:18:52;19.80;;;4.40;;
10651;SDS011;5374;42.742;23.266;2023-01-19T11:21:42;20.33;;;4.63;;
10651;SDS011;5374;42.742;23.266;2023-01-19T11:24:29;18.07;;;3.70;;
10651;SDS011;5374;42.742;23.266;2023-01-19T11:27:18;24.93;;;4.47;;
10651;SDS011;5374;42.742;23.266;2023-01-19T11:30:06;15.17;;;3.60;;
10651;SDS011;5374;42.742;23.266;2023-01-19T11:33:03;21.10;;;4.00;;
10651;SDS011;5374;42.742;23.266;2023-01-19T11:35:54;18.97;;;4.10;;
10651;SDS011;5374;42.742;23.266;2023-01-19T11:38:48;16.70;;;3.30;;
10651;SDS011;5374;42.742;23.266;2023-01-19T11:41:37;18.90;;;4.50;;
10651;SDS011;5374;42.742;23.266;2023-01-19T11:44:28;19.40;;;4.07;;
10651;SDS011;5374;42.742;23.266;2023-01-19T11:47:21;15.37;;;5.13;;
10651;SDS011;5374;42.742;23.266;2023-01-19T11:50:14;16.53;;;5.00;;
10651;SDS011;5374;42.742;23.266;2023-01-19T11:53:10;27.80;;;4.37;;
10651;SDS011;5374;42.742;23.266;2023-01-19T11:56:03;19.33;;;4.33;;
10651;SDS011;5374;42.742;23.266;2023-01-19T11:58:53;24.13;;;6.03;;
10651;SDS011;5374;42.742;23.266;2023-01-19T12:01:43;18.07;;;3.60;;
10651;SDS011;5374;42.742;23.266;2023-01-19T12:04:35;18.00;;;3.33;;
10651;SDS011;5374;42.742;23.266;2023-01-19T12:07:28;13.60;;;3.17;;
10651;SDS011;5374;42.742;23.266;2023-01-19T12:10:21;17.90;;;3.47;;
10651;SDS011;5374;42.742;23.266;2023-01-19T12:13:19;15.97;;;3.57;;
10651;SDS011;5374;42.742;23.266;2023-01-19T12:16:09;16.97;;;4.13;;
10651;SDS011;5374;42.742;23.266;2023-01-19T12:19:01;17.00;;;3.73;;
10651;SDS011;5374;42.742;23.266;2023-01-19T12:21:51;12.50;;;3.40;;
10651;SDS011;5374;42.742;23.266;2023-01-19T12:24:39;18.93;;;4.63;;
10651;SDS011;5374;42.742;23.266;2023-01-19T12:27:36;17.00;;;3.43;;
10651;SDS011;5374;42.742;23.266;2023-01-19T12:30:25;13.97;;;2.90;;
10651;SDS011;5374;42.742;23.266;2023-01-19T12:36:37;26.70;;;7.13;;
10651;SDS011;5374;42.742;23.266;2023-01-19T12:39:24;17.13;;;4.50;;
10651;SDS011;5374;42.742;23.266;2023-01-19T12:42:12;15.17;;;4.00;;
10651;SDS011;5374;42.742;23.266;2023-01-19T12:45:05;11.83;;;3.00;;
10651;SDS011;5374;42.742;23.266;2023-01-19T12:47:59;23.67;;;7.40;;
10651;SDS011;5374;42.742;23.266;2023-01-19T12:50:47;28.70;;;10.77;;
10651;SDS011;5374;42.742;23.266;2023-01-19T12:53:36;24.97;;;6.27;;
10651;SDS011;5374;42.742;23.266;2023-01-19T12:56:25;16.73;;;8.37;;
10651;SDS011;5374;42.742;23.266;2023-01-19T12:59:22;15.13;;;4.70;;
10651;SDS011;5374;42.742;23.266;2023-01-19T13:02:29;12.17;;;2.70;;
10651;SDS011;5374;42.742;23.266;2023-01-19T13:08:56;13.80;;;3.50;;
10651;SDS011;5374;42.742;23.266;2023-01-19T13:18:20;19.90;;;7.30;;
10651;SDS011;5374;42.742;23.266;2023-01-19T13:21:09;12.40;;;2.50;;
10651;SDS011;5374;42.742;23.266;2023-01-19T13:24:00;20.20;;;7.80;;
10651;SDS011;5374;42.742;23.266;2023-01-19T13:26:52;16.07;;;3.57;;
10651;SDS011;5374;42.742;23.266;2023-01-19T13:29:42;14.30;;;4.37;;
10651;SDS011;5374;42.742;23.266;2023-01-19T13:32:29;22.93;;;8.80;;
10651;SDS011;5374;42.742;23.266;2023-01-19T13:35:17;11.60;;;4.03;;
10651;SDS011;5374;42.742;23.266;2023-01-19T13:38:05;10.90;;;4.80;;
10651;SDS011;5374;42.742;23.266;2023-01-19T13:40:58;16.47;;;5.60;;
10651;SDS011;5374;42.742;23.266;2023-01-19T13:43:48;14.63;;;4.97;;
10651;SDS011;5374;42.742;23.266;2023-01-19T13:46:43;15.30;;;5.40;;
10651;SDS011;5374;42.742;23.266;2023-01-19T13:49:32;12.93;;;4.67;;
10651;SDS011;5374;42.742;23.266;2023-01-19T13:52:23;16.13;;;6.33;;
10651;SDS011;5374;42.742;23.266;2023-01-19T13:55:11;10.83;;;4.03;;
10651;SDS011;5374;42.742;23.266;2023-01-19T13:58:01;11.47;;;4.53;;
10651;SDS011;5374;42.742;23.266;2023-01-19T14:00:49;19.87;;;3.40;;
10651;SDS011;5374;42.742;23.266;2023-01-19T14:03:37;15.00;;;5.83;;
10651;SDS011;5374;42.742;23.266;2023-01-19T14:06:36;13.63;;;3.73;;
10651;SDS011;5374;42.742;23.266;2023-01-19T14:09:25;11.67;;;2.80;;
10651;SDS011;5374;42.742;23.266;2023-01-19T14:12:12;15.17;;;4.57;;
10651;SDS011;5374;42.742;23.266;2023-01-19T14:15:04;12.97;;;3.30;;
10651;SDS011;5374;42.742;23.266;2023-01-19T14:18:07;11.57;;;3.00;;
10651;SDS011;5374;42.742;23.266;2023-01-19T14:21:12;12.73;;;3.17;;
10651;SDS011;5374;42.742;23.266;2023-01-19T14:24:05;8.90;;;3.90;;
10651;SDS011;5374;42.742;23.266;2023-01-19T14:26:53;12.70;;;2.80;;
10651;SDS011;5374;42.742;23.266;2023-01-19T14:29:40;13.67;;;3.57;;
10651;SDS011;5374;42.742;23.266;2023-01-19T14:32:30;8.87;;;2.57;;
10651;SDS011;5374;42.742;23.266;2023-01-19T14:35:31;11.00;;;2.70;;
10651;SDS011;5374;42.742;23.266;2023-01-19T14:38:19;10.93;;;2.53;;
10651;SDS011;5374;42.742;23.266;2023-01-19T14:41:06;11.53;;;2.40;;
10651;SDS011;5374;42.742;23.266;2023-01-19T14:43:54;20.03;;;8.63;;
10651;SDS011;5374;42.742;23.266;2023-01-19T14:46:43;10.83;;;2.87;;
10651;SDS011;5374;42.742;23.266;2023-01-19T14:49:35;8.60;;;2.57;;
10651;SDS011;5374;42.742;23.266;2023-01-19T14:52:26;11.93;;;3.97;;
10651;SDS011;5374;42.742;23.266;2023-01-19T14:55:17;18.57;;;7.23;;
10651;SDS011;5374;42.742;23.266;2023-01-19T14:58:09;42.97;;;24.20;;
10651;SDS011;5374;42.742;23.266;2023-01-19T15:00:57;28.20;;;13.20;;
10651;SDS011;5374;42.742;23.266;2023-01-19T15:03:44;17.10;;;9.40;;
10651;SDS011;5374;42.742;23.266;2023-01-19T15:06:33;28.67;;;15.53;;
10651;SDS011;5374;42.742;23.266;2023-01-19T15:09:25;13.13;;;4.40;;
10651;SDS011;5374;42.742;23.266;2023-01-19T15:12:13;10.83;;;4.30;;
10651;SDS011;5374;42.742;23.266;2023-01-19T15:15:03;12.00;;;2.90;;
10651;SDS011;5374;42.742;23.266;2023-01-19T15:18:28;11.33;;;3.10;;
10651;SDS011;5374;42.742;23.266;2023-01-19T15:21:19;10.93;;;2.67;;
10651;SDS011;5374;42.742;23.266;2023-01-19T15:24:12;12.67;;;3.07;;
10651;SDS011;5374;42.742;23.266;2023-01-19T15:26:59;7.70;;;2.57;;
10651;SDS011;5374;42.742;23.266;2023-01-19T15:29:47;9.13;;;2.80;;
10651;SDS011;5374;42.742;23.266;2023-01-19T15:32:34;15.07;;;3.70;;
10651;SDS011;5374;42.742;23.266;2023-01-19T15:35:23;10.27;;;2.60;;
10651;SDS011;5374;42.742;23.266;2023-01-19T15:38:11;10.30;;;2.87;;
10651;SDS011;5374;42.742;23.266;2023-01-19T15:41:00;8.97;;;2.67;;
10651;SDS011;5374;42.742;23.266;2023-01-19T15:43:47;8.10;;;2.50;;
10651;SDS011;5374;42.742;23.266;2023-01-19T15:46:34;10.97;;;3.20;;
10651;SDS011;5374;42.742;23.266;2023-01-19T15:49:21;8.87;;;3.27;;
10651;SDS011;5374;42.742;23.266;2023-01-19T15:52:08;13.23;;;2.90;;
10651;SDS011;5374;42.742;23.266;2023-01-19T15:54:55;9.40;;;2.97;;
10651;SDS011;5374;42.742;23.266;2023-01-19T15:57:45;13.10;;;2.87;;
10651;SDS011;5374;42.742;23.266;2023-01-19T16:00:32;10.17;;;2.90;;
10651;SDS011;5374;42.742;23.266;2023-01-19T16:03:21;9.07;;;2.60;;
10651;SDS011;5374;42.742;23.266;2023-01-19T16:06:08;11.57;;;2.73;;
10651;SDS011;5374;42.742;23.266;2023-01-19T16:08:55;14.30;;;4.13;;
10651;SDS011;5374;42.742;23.266;2023-01-19T16:11:45;7.83;;;2.43;;
10651;SDS011;5374;42.742;23.266;2023-01-19T16:14:34;9.07;;;2.73;;
10651;SDS011;5374;42.742;23.266;2023-01-19T16:17:21;8.23;;;2.87;;
10651;SDS011;5374;42.742;23.266;2023-01-19T16:20:08;9.17;;;3.60;;
10651;SDS011;5374;42.742;23.266;2023-01-19T16:22:56;9.30;;;3.10;;
10651;SDS011;5374;42.742;23.266;2023-01-19T16:25:43;12.63;;;2.87;;
10651;SDS011;5374;42.742;23.266;2023-01-19T16:28:40;11.60;;;2.63;;
10651;SDS011;5374;42.742;23.266;2023-01-19T16:31:28;8.60;;;3.33;;
10651;SDS011;5374;42.742;23.266;2023-01-19T16:34:15;20.07;;;7.00;;
10651;SDS011;5374;42.742;23.266;2023-01-19T16:37:06;11.47;;;3.83;;
10651;SDS011;5374;42.742;23.266;2023-01-19T16:39:54;4.73;;;1.97;;
10651;SDS011;5374;42.742;23.266;2023-01-19T16:42:43;9.17;;;2.80;;
10651;SDS011;5374;42.742;23.266;2023-01-19T16:45:31;6.30;;;3.30;;
10651;SDS011;5374;42.742;23.266;2023-01-19T16:48:20;7.90;;;3.77;;
10651;SDS011;5374;42.742;23.266;2023-01-19T16:51:07;13.50;;;9.70;;
10651;SDS011;5374;42.742;23.266;2023-01-19T16:53:54;16.40;;;11.27;;
10651;SDS011;5374;42.742;23.266;2023-01-19T16:56:41;9.07;;;5.17;;
10651;SDS011;5374;42.742;23.266;2023-01-19T16:59:29;6.23;;;2.40;;
10651;SDS011;5374;42.742;23.266;2023-01-19T17:02:16;4.77;;;1.60;;
10651;SDS011;5374;42.742;23.266;2023-01-19T17:05:05;4.67;;;1.93;;
10651;SDS011;5374;42.742;23.266;2023-01-19T17:07:52;5.07;;;2.93;;